Time;durP1;ratioP1;P1;durP2;ratioP2;P2;SDS_P1;SDS_P2;PMS_P1;PMS_P2;Temp;Humidity;BMP_temperature;BMP_pressure;BME280_temperature;BME280_humidity;BME280_pressure;Samples;Min_cycle;Max_cycle;Signal;HPM_P1;HPM_P2
2022/05/17 00:01:13;;;;;;;9.73;5.03;;;18.80;79.80;;;;;;5019059;28;21105;-68
2022/05/17 00:03:41;;;;;;;9.10;5.23;;;18.80;79.80;;;;;;5017859;28;20472;-69
2022/05/17 00:06:10;;;;;;;7.70;5.57;;;18.80;79.80;;;;;;5014952;28;20457;-69
2022/05/17 00:08:39;;;;;;;9.03;5.60;;;18.70;79.70;;;;;;5021663;28;20471;-69
2022/05/17 00:11:09;;;;;;;10.07;5.20;;;18.70;79.70;;;;;;5016178;28;20961;-70
2022/05/17 00:13:37;;;;;;;12.43;5.33;;;18.70;79.70;;;;;;5018467;28;20468;-69
2022/05/17 00:16:06;;;;;;;10.33;5.60;;;18.70;79.70;;;;;;5023147;28;20556;-69
2022/05/17 00:18:36;;;;;;;9.83;5.17;;;18.60;79.60;;;;;;5022046;28;20483;-68
2022/05/17 00:21:05;;;;;;;11.73;6.23;;;18.60;79.60;;;;;;5022814;28;20830;-69
2022/05/17 00:23:36;;;;;;;10.50;6.47;;;18.60;79.60;;;;;;5021352;28;21000;-69
2022/05/17 00:26:05;;;;;;;12.00;6.00;;;18.50;79.60;;;;;;5019017;28;20478;-69
2022/05/17 00:28:34;;;;;;;10.57;5.37;;;18.50;79.60;;;;;;5021510;28;20466;-68
2022/05/17 00:31:02;;;;;;;9.73;5.83;;;18.40;79.50;;;;;;5019334;28;21033;-69
2022/05/17 00:33:30;;;;;;;8.57;5.67;;;18.40;79.50;;;;;;5018453;28;20445;-69
2022/05/17 00:35:59;;;;;;;9.37;5.50;;;18.40;79.50;;;;;;5016384;28;20480;-70
2022/05/17 00:38:28;;;;;;;11.33;5.20;;;18.30;79.40;;;;;;5018993;28;20472;-68
2022/05/17 00:40:56;;;;;;;9.93;6.27;;;18.30;79.40;;;;;;5017084;28;20457;-68
2022/05/17 00:43:30;;;;;;;9.73;5.93;;;18.30;79.30;;;;;;5020112;28;20493;-68
2022/05/17 00:46:02;;;;;;;8.07;5.63;;;18.20;79.30;;;;;;5021836;28;20477;-69
2022/05/17 00:48:30;;;;;;;9.00;5.47;;;18.20;79.20;;;;;;5015536;28;20549;-69
2022/05/17 00:51:00;;;;;;;7.97;4.97;;;18.10;79.10;;;;;;5017335;28;20462;-70
2022/05/17 00:53:33;;;;;;;9.40;5.80;;;18.10;79.00;;;;;;5016747;28;20457;-69
2022/05/17 00:56:05;;;;;;;7.90;5.10;;;18.00;79.10;;;;;;5013455;28;20846;-69
2022/05/17 00:58:37;;;;;;;9.80;6.50;;;18.00;79.10;;;;;;5015524;28;20451;-68
2022/05/17 01:01:08;;;;;;;10.30;6.63;;;18.00;79.10;;;;;;5021171;28;20460;-68
2022/05/17 01:03:42;;;;;;;14.30;5.67;;;17.90;78.90;;;;;;5020794;28;20484;-68
2022/05/17 01:06:12;;;;;;;9.50;5.93;;;17.90;79.00;;;;;;5017915;28;20472;-71
2022/05/17 01:08:40;;;;;;;9.83;6.37;;;17.90;79.20;;;;;;5022137;28;20553;-68
2022/05/17 01:11:08;;;;;;;11.23;6.47;;;17.80;79.20;;;;;;5018183;28;20452;-69
2022/05/17 01:16:25;;;;;;;11.40;6.53;;;17.80;79.30;;;;;;5021480;28;20494;-68
2022/05/17 01:18:53;;;;;;;14.10;7.90;;;17.80;79.30;;;;;;5019956;28;20486;-69
2022/05/17 01:21:23;;;;;;;11.70;7.60;;;17.80;79.30;;;;;;5017316;28;20472;-68
2022/05/17 01:23:51;;;;;;;14.57;8.10;;;17.80;79.30;;;;;;5019006;28;20469;-68
2022/05/17 01:26:24;;;;;;;11.43;7.37;;;17.80;79.40;;;;;;5017412;28;20933;-68
2022/05/17 01:28:52;;;;;;;14.07;7.10;;;17.80;79.40;;;;;;5013854;28;20479;-68
2022/05/17 01:31:21;;;;;;;11.70;7.00;;;17.70;79.30;;;;;;5021094;28;20473;-69
2022/05/17 01:33:49;;;;;;;11.93;6.97;;;17.70;79.30;;;;;;5020934;28;20460;-68
2022/05/17 01:36:21;;;;;;;11.40;7.50;;;17.70;79.20;;;;;;5019073;28;20456;-68
2022/05/17 01:38:51;;;;;;;12.10;6.77;;;17.60;79.20;;;;;;5017973;28;20459;-69
2022/05/17 01:41:20;;;;;;;14.70;8.07;;;17.60;79.20;;;;;;5015720;28;20460;-68
2022/05/17 01:43:50;;;;;;;13.20;7.50;;;17.60;79.10;;;;;;5016912;28;20480;-69
2022/05/17 01:46:20;;;;;;;9.93;6.97;;;17.50;79.20;;;;;;5017753;28;20519;-68
2022/05/17 01:48:49;;;;;;;11.87;8.03;;;17.50;79.20;;;;;;5019698;28;20460;-69
2022/05/17 01:51:17;;;;;;;12.03;8.00;;;17.50;79.10;;;;;;5016300;28;20441;-70
2022/05/17 01:53:45;;;;;;;10.80;8.07;;;17.40;79.20;;;;;;5019282;28;20449;-69
2022/05/17 01:56:15;;;;;;;17.70;8.23;;;17.40;79.20;;;;;;5018635;28;20451;-70
2022/05/17 01:58:43;;;;;;;11.07;7.70;;;17.40;79.20;;;;;;5013928;28;20960;-70
2022/05/17 02:01:11;;;;;;;13.10;7.33;;;17.40;79.10;;;;;;5018629;28;20469;-68
2022/05/17 02:03:40;;;;;;;8.87;5.57;;;17.40;79.10;;;;;;5018289;28;20507;-69
2022/05/17 02:06:08;;;;;;;10.63;6.43;;;17.30;79.10;;;;;;5018564;28;20460;-71
2022/05/17 02:08:36;;;;;;;13.03;6.07;;;17.30;79.00;;;;;;5015825;28;20448;-69
2022/05/17 02:11:04;;;;;;;12.87;6.20;;;17.30;78.90;;;;;;5010237;28;20464;-68
2022/05/17 02:13:34;;;;;;;8.70;5.90;;;17.20;78.90;;;;;;5013257;28;20461;-69
2022/05/17 02:16:04;;;;;;;9.20;6.63;;;17.20;78.90;;;;;;5012864;28;20488;-69
2022/05/17 02:18:33;;;;;;;8.77;5.27;;;17.20;78.90;;;;;;5017928;28;20532;-69
2022/05/17 02:21:01;;;;;;;7.97;4.77;;;17.10;78.80;;;;;;5019539;28;20511;-71
2022/05/17 02:23:29;;;;;;;7.00;5.23;;;17.10;78.80;;;;;;5016189;28;20476;-70
2022/05/17 02:25:57;;;;;;;10.20;5.70;;;17.10;78.80;;;;;;5014960;28;20505;-67
2022/05/17 02:28:25;;;;;;;9.57;5.93;;;17.00;78.80;;;;;;5015274;28;20483;-67
2022/05/17 02:30:54;;;;;;;9.03;6.03;;;17.00;78.90;;;;;;5018873;28;20475;-68
2022/05/17 02:33:22;;;;;;;9.20;6.30;;;17.00;78.90;;;;;;5018983;28;20445;-70
2022/05/17 02:35:50;;;;;;;8.40;5.50;;;17.00;78.90;;;;;;5018345;28;20472;-69
2022/05/17 02:38:18;;;;;;;11.27;6.73;;;16.90;78.90;;;;;;5017599;28;20478;-70
2022/05/17 02:40:46;;;;;;;7.57;5.37;;;16.90;79.00;;;;;;5016654;28;20466;-68
2022/05/17 02:43:15;;;;;;;10.43;5.30;;;16.90;79.00;;;;;;5014786;28;20479;-68
2022/05/17 02:45:43;;;;;;;8.87;6.13;;;16.90;79.00;;;;;;5018467;28;20488;-69
2022/05/17 02:48:12;;;;;;;9.63;4.83;;;16.90;78.90;;;;;;5016231;28;20487;-71
2022/05/17 02:50:40;;;;;;;7.33;5.30;;;16.90;78.90;;;;;;5016943;28;20464;-68
2022/05/17 02:53:08;;;;;;;7.87;5.30;;;16.90;78.90;;;;;;5014875;28;20547;-68
2022/05/17 02:55:36;;;;;;;9.03;5.73;;;16.90;78.80;;;;;;5016879;28;20477;-68
2022/05/17 02:58:04;;;;;;;10.73;6.13;;;16.90;78.60;;;;;;5011719;28;20456;-69
2022/05/17 03:00:33;;;;;;;8.90;6.13;;;16.80;78.60;;;;;;5010696;28;20479;-69
2022/05/17 03:03:01;;;;;;;9.13;6.00;;;16.70;78.70;;;;;;5012853;28;20453;-69
2022/05/17 03:05:31;;;;;;;11.30;6.90;;;16.70;78.80;;;;;;5013395;28;20489;-71
2022/05/17 03:07:59;;;;;;;11.10;6.80;;;16.70;78.80;;;;;;5021074;28;20459;-67
2022/05/17 03:10:29;;;;;;;11.97;7.00;;;16.70;78.70;;;;;;5010701;28;20456;-69
2022/05/17 03:12:57;;;;;;;11.73;7.43;;;16.60;78.70;;;;;;5031133;28;20469;-68
2022/05/17 03:15:25;;;;;;;9.60;5.90;;;16.50;78.80;;;;;;5012341;28;20479;-68
2022/05/17 03:17:53;;;;;;;9.30;6.70;;;16.50;78.90;;;;;;5014304;28;20451;-68
2022/05/17 03:20:21;;;;;;;12.00;8.10;;;16.60;78.90;;;;;;5015080;28;21690;-68
2022/05/17 03:22:50;;;;;;;10.47;6.80;;;16.50;78.70;;;;;;5016006;28;20455;-68
2022/05/17 03:25:18;;;;;;;11.60;6.60;;;16.50;78.80;;;;;;5018299;28;20487;-68
2022/05/17 03:27:54;;;;;;;12.23;7.10;;;16.50;78.70;;;;;;5015454;28;20448;-68
2022/05/17 03:30:22;;;;;;;10.57;6.70;;;16.50;78.70;;;;;;5021055;28;20474;-69
2022/05/17 03:32:51;;;;;;;9.00;5.97;;;16.50;78.70;;;;;;5020708;28;20460;-68
2022/05/17 03:35:21;;;;;;;9.07;5.90;;;16.50;78.60;;;;;;5019202;28;20569;-67
2022/05/17 03:37:51;;;;;;;9.53;6.27;;;16.50;78.50;;;;;;5017945;28;20467;-68
2022/05/17 03:40:20;;;;;;;10.00;6.33;;;16.40;78.40;;;;;;5022885;28;20951;-68
2022/05/17 03:42:48;;;;;;;11.93;6.80;;;16.40;78.40;;;;;;5017542;28;20453;-67
2022/05/17 03:45:16;;;;;;;9.10;6.77;;;16.40;78.30;;;;;;5019261;28;20977;-68
2022/05/17 03:47:45;;;;;;;9.50;6.27;;;16.40;78.20;;;;;;5020718;28;21053;-68
2022/05/17 03:50:14;;;;;;;8.83;5.70;;;16.40;78.20;;;;;;5018647;28;21000;-68
2022/05/17 03:52:42;;;;;;;9.37;5.10;;;16.40;78.10;;;;;;5021155;28;20460;-68
2022/05/17 03:55:12;;;;;;;9.97;6.70;;;16.30;78.00;;;;;;5023250;28;20476;-68
2022/05/17 03:57:40;;;;;;;7.90;5.23;;;16.30;77.80;;;;;;5023688;28;20472;-68
2022/05/17 04:00:10;;;;;;;10.90;5.30;;;16.20;77.90;;;;;;5022789;28;20456;-68
2022/05/17 04:02:41;;;;;;;11.10;7.80;;;16.20;77.90;;;;;;5023546;28;20444;-68
2022/05/17 04:05:10;;;;;;;11.50;7.17;;;16.10;77.90;;;;;;5024749;28;20495;-68
2022/05/17 04:07:39;;;;;;;11.60;7.00;;;16.10;78.00;;;;;;5021031;28;20459;-67
2022/05/17 04:10:08;;;;;;;10.60;7.10;;;16.10;77.90;;;;;;5017646;28;20455;-68
2022/05/17 04:12:38;;;;;;;15.33;7.23;;;16.00;77.90;;;;;;5014694;28;20456;-66
2022/05/17 04:15:08;;;;;;;14.63;6.23;;;16.00;78.00;;;;;;5016079;28;20494;-68
2022/05/17 04:17:36;;;;;;;14.10;7.60;;;16.10;78.00;;;;;;5017549;28;20459;-67
2022/05/17 04:20:06;;;;;;;10.70;7.27;;;16.10;78.00;;;;;;5017145;28;20847;-68
2022/05/17 04:22:34;;;;;;;10.07;6.53;;;16.10;78.10;;;;;;5017430;28;20462;-68
2022/05/17 04:25:02;;;;;;;10.20;6.73;;;16.20;78.20;;;;;;5019865;28;20480;-68
2022/05/17 04:27:30;;;;;;;10.50;6.40;;;16.20;78.20;;;;;;5012436;28;20465;-67
2022/05/17 04:29:59;;;;;;;8.90;5.93;;;16.30;78.30;;;;;;5020687;28;20476;-68
2022/05/17 04:32:27;;;;;;;10.30;6.13;;;16.40;78.20;;;;;;5022763;28;20483;-68
2022/05/17 04:34:55;;;;;;;10.70;6.60;;;16.40;78.30;;;;;;5019791;28;20510;-66
2022/05/17 04:37:23;;;;;;;9.80;6.33;;;16.50;78.30;;;;;;5021727;28;20478;-68
2022/05/17 04:39:51;;;;;;;9.50;6.20;;;16.60;78.30;;;;;;5017534;28;20478;-67
2022/05/17 04:42:19;;;;;;;11.33;7.10;;;16.70;78.20;;;;;;5018642;28;20476;-67
2022/05/17 04:44:47;;;;;;;10.30;7.10;;;16.80;78.20;;;;;;5017747;28;20996;-68
2022/05/17 04:47:18;;;;;;;12.00;7.67;;;16.90;78.20;;;;;;5018800;28;20503;-69
2022/05/17 04:49:53;;;;;;;12.23;6.60;;;17.00;78.10;;;;;;5021234;28;20471;-69
2022/05/17 04:52:23;;;;;;;11.90;6.67;;;17.10;78.20;;;;;;5021854;28;20457;-69
2022/05/17 04:54:51;;;;;;;10.10;7.37;;;17.20;78.20;;;;;;5022312;28;21276;-69
2022/05/17 04:57:20;;;;;;;11.57;7.93;;;17.30;78.30;;;;;;5019563;28;20465;-69
2022/05/17 04:59:48;;;;;;;12.23;7.93;;;17.40;78.20;;;;;;5015386;28;20465;-68
2022/05/17 05:02:17;;;;;;;9.10;6.97;;;17.60;78.20;;;;;;5017540;28;20485;-68
2022/05/17 05:04:45;;;;;;;11.83;7.30;;;17.70;78.30;;;;;;5015135;28;20483;-69
2022/05/17 05:07:13;;;;;;;9.77;6.77;;;17.90;78.20;;;;;;5020862;28;20467;-69
2022/05/17 05:09:41;;;;;;;10.33;7.47;;;18.00;78.10;;;;;;5022338;28;20817;-69
2022/05/17 05:12:10;;;;;;;14.40;7.60;;;18.10;78.20;;;;;;5019530;28;20473;-68
2022/05/17 05:14:38;;;;;;;10.10;6.90;;;18.20;78.50;;;;;;5016154;28;20483;-69
2022/05/17 05:17:06;;;;;;;11.57;7.73;;;18.50;79.30;;;;;;5016765;28;21076;-68
2022/05/17 05:19:36;;;;;;;11.10;6.97;;;18.80;80.30;;;;;;5019355;28;20461;-69
2022/05/17 05:22:05;;;;;;;12.30;8.40;;;19.30;80.10;;;;;;5025065;28;20454;-69
2022/05/17 05:24:33;;;;;;;11.13;7.43;;;20.10;78.70;;;;;;5019556;28;20484;-69
2022/05/17 05:27:01;;;;;;;11.77;7.23;;;20.90;76.80;;;;;;5020925;28;20483;-69
2022/05/17 05:29:29;;;;;;;9.70;7.50;;;21.70;74.90;;;;;;5020469;28;20472;-69
2022/05/17 05:31:57;;;;;;;14.50;7.90;;;22.40;73.50;;;;;;5016017;28;20474;-69
2022/05/17 05:34:27;;;;;;;10.83;7.13;;;23.20;72.40;;;;;;5014256;28;20480;-69
2022/05/17 05:36:57;;;;;;;12.10;7.87;;;23.80;71.50;;;;;;5013030;28;20444;-68
2022/05/17 05:39:25;;;;;;;11.77;6.80;;;24.60;70.40;;;;;;5017337;28;20463;-69
2022/05/17 05:41:54;;;;;;;11.10;7.40;;;25.30;69.40;;;;;;5016653;28;20508;-68
2022/05/17 05:44:22;;;;;;;11.00;7.73;;;26.00;68.40;;;;;;5017738;28;20469;-68
2022/05/17 05:46:50;;;;;;;11.50;7.97;;;26.70;67.50;;;;;;5032631;28;20515;-69
2022/05/17 05:49:18;;;;;;;14.43;7.80;;;27.20;66.60;;;;;;5016273;28;20904;-69
2022/05/17 05:51:47;;;;;;;11.50;7.80;;;27.50;65.80;;;;;;5020720;28;20457;-69
2022/05/17 05:54:17;;;;;;;15.43;6.60;;;27.80;65.20;;;;;;5017581;28;20469;-69
2022/05/17 05:56:45;;;;;;;11.10;6.83;;;28.10;64.30;;;;;;5015437;28;20447;-69
2022/05/17 05:59:13;;;;;;;8.87;6.77;;;28.00;63.40;;;;;;5012578;28;20468;-69
2022/05/17 06:01:41;;;;;;;10.37;7.20;;;27.90;63.20;;;;;;5016817;28;20466;-69
2022/05/17 06:04:09;;;;;;;10.73;6.80;;;27.90;63.50;;;;;;5016339;28;20567;-69
2022/05/17 06:06:37;;;;;;;10.03;6.43;;;28.30;63.30;;;;;;5016540;28;20847;-68
2022/05/17 06:09:05;;;;;;;13.37;7.17;;;28.80;62.70;;;;;;5015383;28;20465;-71
2022/05/17 06:11:35;;;;;;;12.80;9.30;;;29.40;61.40;;;;;;5017337;28;20449;-71
2022/05/17 06:14:02;;;;;;;54.77;36.20;;;29.70;59.90;;;;;;5014788;28;20452;-71
2022/05/17 06:16:30;;;;;;;21.23;14.50;;;29.20;58.40;;;;;;5030987;28;20994;-71
2022/05/17 06:19:01;;;;;;;18.50;12.40;;;28.10;58.30;;;;;;5022580;28;20825;-71
2022/05/17 06:21:29;;;;;;;19.70;9.40;;;26.80;59.20;;;;;;5019668;28;20468;-70
2022/05/17 06:23:57;;;;;;;12.83;9.40;;;25.50;60.50;;;;;;5016423;28;20468;-69
2022/05/17 06:26:25;;;;;;;12.60;8.70;;;24.50;61.70;;;;;;5018379;28;21048;-69
2022/05/17 06:28:55;;;;;;;11.50;9.20;;;23.60;62.90;;;;;;5018285;28;21000;-70
2022/05/17 06:31:23;;;;;;;14.73;8.40;;;22.80;64.20;;;;;;5015556;28;20569;-70
2022/05/17 06:33:51;;;;;;;12.03;8.43;;;22.30;65.30;;;;;;5017782;28;20459;-71
2022/05/17 06:36:19;;;;;;;13.90;9.10;;;21.80;66.10;;;;;;5014461;28;20820;-71
2022/05/17 06:39:08;;;;;;;14.73;9.07;;;21.40;67.20;;;;;;5014675;28;20506;-71
2022/05/17 06:41:37;;;;;;;14.03;8.60;;;21.10;67.90;;;;;;5014077;28;20454;-70
2022/05/17 06:44:06;;;;;;;14.03;9.40;;;20.80;68.70;;;;;;5015275;28;20459;-69
2022/05/17 06:46:35;;;;;;;14.03;9.23;;;20.60;69.30;;;;;;5010322;28;20541;-69
2022/05/17 06:49:03;;;;;;;13.47;9.50;;;20.50;70.00;;;;;;5011840;28;20459;-69
2022/05/17 06:51:34;;;;;;;16.90;10.80;;;20.40;70.60;;;;;;5015615;28;20467;-69
2022/05/17 06:54:02;;;;;;;13.93;9.70;;;20.20;71.10;;;;;;5018008;28;20471;-72
2022/05/17 06:56:30;;;;;;;14.23;10.10;;;20.10;71.80;;;;;;5014435;28;20453;-72
2022/05/17 06:58:58;;;;;;;13.87;9.03;;;20.00;72.30;;;;;;5016343;28;20449;-70
2022/05/17 07:01:27;;;;;;;16.80;9.80;;;20.00;72.50;;;;;;5012912;28;20498;-70
2022/05/17 07:03:56;;;;;;;17.40;10.30;;;19.90;72.90;;;;;;5019006;28;20469;-70
2022/05/17 07:06:23;;;;;;;13.27;9.60;;;19.90;73.30;;;;;;5016807;28;20512;-70
2022/05/17 07:08:51;;;;;;;21.00;9.80;;;19.80;74.10;;;;;;5017846;28;20461;-70
2022/05/17 07:14:05;;;;;;;12.20;9.30;;;19.80;74.10;;;;;;5019548;28;20453;-72
2022/05/17 07:16:34;;;;;;;14.03;8.73;;;19.80;74.40;;;;;;5019326;28;20481;-72
2022/05/17 07:19:03;;;;;;;17.27;8.70;;;19.80;74.60;;;;;;5019416;28;20453;-72
2022/05/17 07:21:51;;;;;;;17.77;8.97;;;19.90;74.80;;;;;;5020988;28;21067;-72
2022/05/17 07:24:19;;;;;;;14.60;8.27;;;19.90;74.90;;;;;;5019951;28;20485;-72
2022/05/17 07:26:47;;;;;;;15.13;9.27;;;20.00;75.00;;;;;;5022578;28;21335;-69
2022/05/17 07:29:35;;;;;;;16.13;8.50;;;20.00;75.10;;;;;;5020909;28;20481;-72
2022/05/17 07:32:07;;;;;;;9.90;7.10;;;20.10;75.20;;;;;;5019043;28;20839;-73
2022/05/17 07:34:36;;;;;;;14.17;7.43;;;20.10;75.20;;;;;;5021961;28;20480;-72
2022/05/17 07:37:04;;;;;;;19.60;7.80;;;20.20;75.30;;;;;;5022213;28;20452;-72
2022/05/17 07:39:40;;;;;;;10.60;7.47;;;20.20;75.40;;;;;;5022483;28;20954;-70
2022/05/17 07:42:09;;;;;;;14.97;7.00;;;20.20;75.40;;;;;;5019084;28;20492;-72
2022/05/17 07:44:37;;;;;;;12.03;6.83;;;20.20;75.60;;;;;;5016562;28;20479;-71
2022/05/17 07:47:07;;;;;;;12.63;7.00;;;20.20;75.70;;;;;;5015846;28;20469;-71
2022/05/17 07:49:38;;;;;;;13.37;6.83;;;20.20;75.70;;;;;;5014370;28;20482;-72
2022/05/17 07:52:07;;;;;;;10.23;6.30;;;20.20;75.80;;;;;;5017411;28;20998;-71
2022/05/17 07:54:37;;;;;;;10.43;5.53;;;20.30;75.70;;;;;;5026771;28;20507;-70
2022/05/17 07:57:06;;;;;;;12.70;7.20;;;20.30;75.60;;;;;;5017051;28;20452;-72
2022/05/17 07:59:34;;;;;;;11.10;6.30;;;20.40;75.50;;;;;;5017672;28;20478;-72
2022/05/17 08:02:03;;;;;;;11.20;6.30;;;20.40;75.40;;;;;;5019443;28;20488;-72
2022/05/17 08:04:32;;;;;;;12.23;6.83;;;20.40;75.30;;;;;;5024989;28;20481;-71
2022/05/17 08:07:00;;;;;;;19.07;6.83;;;20.50;75.30;;;;;;5020612;28;20493;-72
2022/05/17 08:09:28;;;;;;;11.77;6.10;;;20.50;75.30;;;;;;5014301;28;20463;-72
2022/05/17 08:11:57;;;;;;;11.43;5.70;;;20.50;75.20;;;;;;5014673;28;20465;-72
2022/05/17 08:14:24;;;;;;;10.33;5.03;;;20.60;75.10;;;;;;5015932;28;20481;-72
2022/05/17 08:16:52;;;;;;;9.43;5.63;;;20.60;75.10;;;;;;5022368;28;20481;-72
2022/05/17 08:19:21;;;;;;;11.60;5.73;;;20.60;75.10;;;;;;5023825;28;20479;-72
2022/05/17 08:21:50;;;;;;;12.13;6.43;;;20.70;75.00;;;;;;5019838;28;20466;-72
2022/05/17 08:24:18;;;;;;;11.23;5.97;;;20.70;74.80;;;;;;5021882;28;20496;-72
2022/05/17 08:29:32;;;;;;;10.70;5.60;;;20.70;74.70;;;;;;5017194;28;20558;-72
2022/05/17 08:34:46;;;;;;;10.80;6.13;;;20.80;74.60;;;;;;5026780;28;20472;-71
2022/05/17 08:37:16;;;;;;;8.30;4.90;;;20.80;74.40;;;;;;5025929;28;20462;-72
2022/05/17 08:39:45;;;;;;;8.03;5.30;;;20.80;74.30;;;;;;5022385;28;20459;-71
2022/05/17 08:42:20;;;;;;;11.47;5.33;;;20.80;74.20;;;;;;5016447;28;20455;-71
2022/05/17 08:44:51;;;;;;;10.00;5.27;;;20.80;74.20;;;;;;5019064;28;20528;-72
2022/05/17 08:47:27;;;;;;;8.30;5.63;;;20.80;74.20;;;;;;5021500;28;20482;-72
2022/05/17 08:50:20;;;;;;;10.10;5.70;;;20.90;74.20;;;;;;5022451;28;20473;-72
2022/05/17 08:52:50;;;;;;;10.20;5.63;;;20.90;74.10;;;;;;5022225;28;20450;-70
2022/05/17 08:55:24;;;;;;;9.47;5.30;;;21.00;73.90;;;;;;5018504;28;20469;-71
2022/05/17 08:57:56;;;;;;;10.80;5.63;;;21.00;73.80;;;;;;5024502;28;20521;-72
2022/05/17 09:00:27;;;;;;;10.83;5.30;;;21.00;73.50;;;;;;5024216;28;20467;-71
2022/05/17 09:03:02;;;;;;;9.17;5.30;;;21.00;73.80;;;;;;5023452;28;21048;-72
2022/05/17 09:05:33;;;;;;;11.53;5.83;;;21.10;73.60;;;;;;5017168;28;20497;-72
2022/05/17 09:08:15;;;;;;;12.30;5.27;;;21.20;73.30;;;;;;5018077;28;20492;-72
2022/05/17 09:10:49;;;;;;;8.30;5.10;;;21.20;73.20;;;;;;5017227;28;20511;-72
2022/05/17 09:13:22;;;;;;;11.30;5.33;;;21.30;72.80;;;;;;5018573;28;20467;-72
2022/05/17 09:15:53;;;;;;;11.50;4.67;;;21.30;72.70;;;;;;5019962;28;20855;-72
2022/05/17 09:18:22;;;;;;;9.20;4.67;;;21.30;72.50;;;;;;5016930;28;20516;-73
2022/05/17 09:20:51;;;;;;;10.13;5.00;;;21.40;72.60;;;;;;5015758;28;21302;-72
2022/05/17 09:23:21;;;;;;;8.70;4.20;;;21.50;72.40;;;;;;5018431;28;21005;-72
2022/05/17 09:25:52;;;;;;;8.23;4.40;;;21.50;72.00;;;;;;5020527;28;20483;-73
2022/05/17 09:28:22;;;;;;;8.47;4.40;;;21.60;71.90;;;;;;5017500;28;20505;-72
2022/05/17 09:31:08;;;;;;;9.87;4.90;;;21.70;71.70;;;;;;5019252;28;20877;-70
2022/05/17 09:33:39;;;;;;;7.80;5.07;;;21.70;71.60;;;;;;5019737;28;20489;-70
2022/05/17 09:36:13;;;;;;;7.07;4.43;;;21.70;71.50;;;;;;5024839;28;21328;-72
2022/05/17 09:38:43;;;;;;;15.73;6.20;;;21.70;71.30;;;;;;5018286;28;20466;-72
2022/05/17 09:41:14;;;;;;;8.80;4.70;;;21.80;71.40;;;;;;5016634;28;20453;-72
2022/05/17 09:43:50;;;;;;;6.27;4.30;;;21.80;71.30;;;;;;5018316;28;20441;-72
2022/05/17 09:46:29;;;;;;;9.27;4.30;;;21.80;71.40;;;;;;5016573;28;20486;-71
2022/05/17 09:54:44;;;;;;;8.87;4.60;;;21.80;71.00;;;;;;5022477;28;20472;-72
2022/05/17 09:57:21;;;;;;;9.07;4.37;;;21.80;71.00;;;;;;5023402;28;20457;-72
2022/05/17 09:59:51;;;;;;;7.37;4.00;;;21.80;70.90;;;;;;5016868;28;20447;-72
2022/05/17 10:02:35;;;;;;;7.60;4.30;;;21.80;70.70;;;;;;5016773;28;20491;-72
2022/05/17 10:05:16;;;;;;;7.47;3.43;;;21.80;70.40;;;;;;5020082;28;21240;-72
2022/05/17 10:07:50;;;;;;;6.70;4.00;;;21.80;70.20;;;;;;5017931;28;20553;-71
2022/05/17 10:10:27;;;;;;;7.20;3.90;;;21.90;70.40;;;;;;5014477;28;21006;-71
2022/05/17 10:13:00;;;;;;;6.87;4.60;;;22.00;70.30;;;;;;5014542;28;20465;-71
2022/05/17 10:15:32;;;;;;;8.50;4.60;;;22.00;70.20;;;;;;5017215;28;20481;-71
2022/05/17 10:18:04;;;;;;;6.33;3.83;;;22.10;70.20;;;;;;5017541;28;20436;-72
2022/05/17 10:20:40;;;;;;;9.33;4.07;;;22.10;70.30;;;;;;5019618;28;20448;-72
2022/05/17 10:23:25;;;;;;;8.10;4.27;;;22.20;70.30;;;;;;5018196;28;20448;-71
2022/05/17 10:25:59;;;;;;;8.27;4.47;;;22.30;70.30;;;;;;5024238;28;20478;-71
2022/05/17 10:28:35;;;;;;;6.33;3.90;;;22.30;70.20;;;;;;5010463;28;20475;-72
2022/05/17 10:31:11;;;;;;;7.20;4.20;;;22.30;70.20;;;;;;5014556;28;20464;-71
2022/05/17 10:34:04;;;;;;;9.83;3.80;;;22.30;70.10;;;;;;5018181;28;20460;-71
2022/05/17 10:36:40;;;;;;;8.63;4.03;;;22.30;70.10;;;;;;5016564;28;20465;-72
2022/05/17 10:39:20;;;;;;;7.67;4.43;;;22.30;70.20;;;;;;5022812;28;20479;-71
2022/05/17 10:41:50;;;;;;;7.27;3.70;;;22.30;70.10;;;;;;5018280;28;20456;-72
2022/05/17 10:44:22;;;;;;;7.90;3.80;;;22.40;70.10;;;;;;5024585;28;20914;-71
2022/05/17 10:46:55;;;;;;;7.70;3.77;;;22.40;70.10;;;;;;5021371;28;20481;-70
2022/05/17 10:49:33;;;;;;;5.67;3.20;;;22.40;69.80;;;;;;5024157;28;20542;-72
2022/05/17 10:52:11;;;;;;;5.90;3.30;;;22.40;69.50;;;;;;5021374;28;20462;-72
2022/05/17 10:54:51;;;;;;;6.93;3.67;;;22.40;69.20;;;;;;5024481;28;20497;-71
2022/05/17 10:57:34;;;;;;;7.50;3.60;;;22.50;69.10;;;;;;5024362;28;20474;-72
2022/05/17 11:00:09;;;;;;;9.43;4.27;;;22.50;69.10;;;;;;5025768;28;20456;-72
2022/05/17 11:03:22;;;;;;;8.60;3.77;;;22.60;69.20;;;;;;5022133;28;20869;-72
2022/05/17 11:06:02;;;;;;;5.63;2.77;;;22.60;69.00;;;;;;5006815;28;20574;-71
2022/05/17 11:08:41;;;;;;;6.10;3.70;;;22.70;68.90;;;;;;5020112;28;20485;-71
2022/05/17 11:11:37;;;;;;;7.20;4.30;;;22.80;68.70;;;;;;5016099;28;20452;-71
2022/05/17 11:14:10;;;;;;;8.53;4.47;;;22.80;68.60;;;;;;5021633;28;20448;-72
2022/05/17 11:16:54;;;;;;;8.27;3.87;;;22.80;68.20;;;;;;5024141;28;20476;-71
2022/05/17 11:19:31;;;;;;;8.43;3.40;;;22.80;68.00;;;;;;5024845;28;20463;-72
2022/05/17 11:22:05;;;;;;;8.80;4.00;;;22.80;68.00;;;;;;5018380;28;20841;-71
2022/05/17 11:25:03;;;;;;;9.07;3.53;;;22.80;67.70;;;;;;5020194;28;20487;-71
2022/05/17 11:28:01;;;;;;;5.90;3.00;;;22.90;67.80;;;;;;5020656;28;20470;-70
2022/05/17 11:30:34;;;;;;;7.13;3.33;;;22.90;67.50;;;;;;5019598;28;20843;-71
2022/05/17 11:33:11;;;;;;;5.13;2.63;;;22.90;67.40;;;;;;5035736;28;20448;-71
2022/05/17 11:35:50;;;;;;;5.63;3.03;;;22.90;67.30;;;;;;5018510;28;20864;-72
2022/05/17 11:38:39;;;;;;;9.17;2.90;;;22.80;67.20;;;;;;5020082;28;20463;-72
2022/05/17 11:41:09;;;;;;;7.97;2.80;;;22.80;67.20;;;;;;5020012;28;21274;-71
2022/05/17 11:44:13;;;;;;;6.93;3.10;;;22.80;67.10;;;;;;5015427;28;20818;-72
2022/05/17 11:47:00;;;;;;;7.30;3.10;;;22.80;66.90;;;;;;5018504;28;20474;-72
2022/05/17 11:49:45;;;;;;;5.37;2.70;;;22.80;66.80;;;;;;5018823;28;20479;-72
2022/05/17 11:52:26;;;;;;;8.80;3.33;;;22.80;67.00;;;;;;5019740;28;20506;-72
2022/05/17 11:54:56;;;;;;;5.93;2.87;;;22.80;66.90;;;;;;5023150;28;20509;-71
2022/05/17 11:58:03;;;;;;;10.87;3.97;;;22.80;66.70;;;;;;5019664;28;20475;-70
2022/05/17 12:00:47;;;;;;;5.83;2.97;;;22.90;66.70;;;;;;5032268;28;20506;-71
2022/05/17 12:03:50;;;;;;;10.00;3.20;;;23.00;66.70;;;;;;5020468;28;20452;-72
2022/05/17 12:06:44;;;;;;;6.60;2.90;;;23.10;66.20;;;;;;5020825;28;20457;-69
2022/05/17 12:09:29;;;;;;;6.77;2.60;;;23.10;66.00;;;;;;5015662;28;21065;-70
2022/05/17 12:12:27;;;;;;;6.20;2.80;;;23.20;66.20;;;;;;5018331;28;20467;-70
2022/05/17 12:15:11;;;;;;;5.50;3.07;;;23.20;66.20;;;;;;5016671;28;20994;-72
2022/05/17 12:17:47;;;;;;;8.53;3.07;;;23.30;66.20;;;;;;5019399;28;20464;-71
2022/05/17 12:20:22;;;;;;;7.20;2.80;;;23.40;66.20;;;;;;5017832;28;21446;-71
2022/05/17 12:22:54;;;;;;;8.23;3.30;;;23.50;66.20;;;;;;5022551;28;20477;-72
2022/05/17 12:25:31;;;;;;;6.33;2.80;;;23.60;65.90;;;;;;5019300;28;20832;-71
2022/05/17 12:28:22;;;;;;;9.87;2.77;;;23.60;65.80;;;;;;5020002;28;20506;-71
2022/05/17 12:30:59;;;;;;;7.60;2.93;;;23.60;65.50;;;;;;5024554;28;20478;-71
2022/05/17 12:33:30;;;;;;;7.73;3.10;;;23.60;65.20;;;;;;5017303;28;20456;-71
2022/05/17 12:36:15;;;;;;;6.00;2.50;;;23.50;64.90;;;;;;5018278;28;20468;-71
2022/05/17 12:44:55;;;;;;;8.30;2.67;;;23.40;64.70;;;;;;5010853;28;20728;-72
2022/05/17 12:47:29;;;;;;;6.57;2.90;;;23.40;64.90;;;;;;5015193;28;20480;-72
2022/05/17 12:49:58;;;;;;;6.80;2.40;;;23.40;64.70;;;;;;5016381;28;20561;-72
2022/05/17 12:52:31;;;;;;;6.47;3.73;;;23.40;64.40;;;;;;5018899;28;20942;-71
2022/05/17 12:55:02;;;;;;;7.43;2.63;;;23.30;64.10;;;;;;5020299;28;20488;-71
2022/05/17 12:57:34;;;;;;;5.70;3.00;;;23.30;64.20;;;;;;5019113;28;20465;-71
2022/05/17 13:00:11;;;;;;;4.90;2.50;;;23.30;64.30;;;;;;5014216;28;21147;-71
2022/05/17 13:02:44;;;;;;;5.00;2.50;;;23.20;64.50;;;;;;5018045;28;20965;-71
2022/05/17 13:05:30;;;;;;;6.40;3.10;;;23.20;64.40;;;;;;5016761;28;20511;-71
2022/05/17 13:08:09;;;;;;;6.17;2.90;;;23.20;64.10;;;;;;5018124;28;20458;-72
2022/05/17 13:10:38;;;;;;;5.87;3.10;;;23.20;64.20;;;;;;5020945;28;20477;-71
2022/05/17 13:13:15;;;;;;;4.93;2.63;;;23.20;64.30;;;;;;5019478;28;20539;-71
2022/05/17 13:15:46;;;;;;;6.27;2.80;;;23.30;64.20;;;;;;5017480;28;20477;-72
2022/05/17 13:18:16;;;;;;;6.70;3.10;;;23.30;64.10;;;;;;5018117;28;20456;-72
2022/05/17 13:20:48;;;;;;;7.53;3.37;;;23.30;64.00;;;;;;5019015;28;20461;-71
2022/05/17 13:23:21;;;;;;;8.47;3.80;;;23.40;63.90;;;;;;5020820;28;20464;-69
2022/05/17 13:25:50;;;;;;;7.73;3.20;;;23.30;63.90;;;;;;5021035;28;20499;-71
2022/05/17 13:28:26;;;;;;;7.83;3.23;;;23.30;63.80;;;;;;5020867;28;20521;-70